Ashleigh — WDC3260 — position and weather

sailwx.info

Track history (hours):
 
Tides and Currents Weather Stations Pressure Air Temp Water Temp Dewpoint Dewpoint Depression Visibility Wind Speed Wind Dir Waves Ship Positions

Ashleigh

Owner: Cooper Marine & Timberlands Corporation, Mobile, AL. More information available from US FCC via Universal Licensing System and Coast Guard Vessel Documentation Center.

Last reported at 2018-Feb-11 15:48 UTC. Time now 2018-Feb-18 19:40 UTC.
Position N 30°24' W 086°53'.

Length 30 m.

Type: Cargo ship. MMSI: 367004850.

Date/timePositionNaut miles runAvg speedWind from/ knotsBaromVisibWave heightAir tempDewpointWater temp
2018-Feb-11 15:48N 30°24' W 086°53'2 5.9
2018-Feb-11 15:30N 30°24' W 086°51'3 6.2
2018-Feb-11 15:00N 30°24' W 086°48'13 4.3
2018-Feb-11 11:58N 30°25' W 086°32'1 1.3
2018-Feb-11 11:21N 30°25' W 086°32'0 0.3
2018-Feb-11 10:47N 30°25' W 086°32'0 0.1
2018-Feb-11 09:53N 30°25' W 086°32'0 0.2
2018-Feb-11 09:27N 30°25' W 086°32'0 0.5
2018-Feb-11 09:00N 30°25' W 086°32'0 0.2
2018-Feb-11 08:28N 30°25' W 086°32'0 0.4
2018-Feb-11 07:58N 30°25' W 086°32'0 0.2
2018-Feb-11 07:23N 30°25' W 086°32'0 0.3
2018-Feb-11 07:00N 30°25' W 086°32'0 0.3
2018-Feb-11 06:29N 30°25' W 086°32'0 0.5
2018-Feb-11 06:00N 30°25' W 086°32'0 0.2
2018-Feb-11 05:29N 30°25' W 086°32'3 5.2
2018-Feb-11 05:00N 30°26' W 086°29'3 6.1
2018-Feb-11 04:30N 30°26' W 086°26'3 6.0
2018-Feb-11 04:00N 30°26' W 086°22'3 0.2
2018-Feb-10 11:40N 30°26' W 086°19'1 5.1
2018-Feb-10 11:30N 30°26' W 086°20'3 5.1
2018-Feb-10 11:00N 30°26' W 086°23'2 4.9
2018-Feb-10 10:30N 30°26' W 086°25'2 4.6
2018-Feb-10 10:01N 30°26' W 086°28'3 5.5
2018-Feb-10 09:29N 30°25' W 086°31'11 4.6
2018-Feb-10 07:03N 30°24' W 086°44'0 5.6
2018-Feb-10 07:00N 30°24' W 086°45'3 5.4
2018-Feb-10 06:30N 30°24' W 086°48'3 5.5
2018-Feb-10 06:01N 30°24' W 086°51'  
2018-Feb-04 22:25N 30°24' W 086°53'3 6.9
2018-Feb-04 22:00N 30°24' W 086°50'3 6.8
2018-Feb-04 21:30N 30°24' W 086°46'13 6.4
2018-Feb-04 19:32N 30°25' W 086°31'1 7.2
2018-Feb-04 19:21N 30°26' W 086°30'3 7.3
2018-Feb-04 19:00N 30°26' W 086°27'4 7.4
2018-Feb-04 18:30N 30°26' W 086°23'3 0.1
2018-Feb-03 15:14N 30°26' W 086°19'1 4.6
2018-Feb-03 14:59N 30°26' W 086°20'2 5.1
2018-Feb-03 14:30N 30°26' W 086°23'2 4.8
2018-Feb-03 14:00N 30°26' W 086°26'2 3.7
2018-Feb-03 13:30N 30°26' W 086°28'4 4.6
2018-Feb-03 12:40N 30°25' W 086°32'10 4.7
2018-Feb-03 10:30N 30°24' W 086°44'2 4.8
2018-Feb-03 10:01N 30°24' W 086°47'3 5.0
2018-Feb-03 09:30N 30°24' W 086°50'3 5.1
2018-Feb-03 09:00N 30°24' W 086°53'  
Track history (hours):
 
Tides and Currents Weather Stations Pressure Air Temp Water Temp Dewpoint Dewpoint Depression Visibility Wind Speed Wind Dir Waves Ship Positions

Ashleigh

Owner: Cooper Marine & Timberlands Corporation, Mobile, AL. More information available from US FCC via Universal Licensing System and Coast Guard Vessel Documentation Center.

Last reported at 2018-Feb-11 15:48 UTC. Time now 2018-Feb-18 19:40 UTC.
Position N 30°24' W 086°53'.

Length 30 m.

Type: Cargo ship. MMSI: 367004850.

Date/timePositionNaut miles runAvg speedWind from/ knotsBaromVisibWave heightAir tempDewpointWater temp
2018-Feb-11 15:48N 30°24' W 086°53'2 5.9
2018-Feb-11 15:30N 30°24' W 086°51'3 6.2
2018-Feb-11 15:00N 30°24' W 086°48'13 4.3
2018-Feb-11 11:58N 30°25' W 086°32'1 1.3
2018-Feb-11 11:21N 30°25' W 086°32'0 0.3
2018-Feb-11 10:47N 30°25' W 086°32'0 0.1
2018-Feb-11 09:53N 30°25' W 086°32'0 0.2
2018-Feb-11 09:27N 30°25' W 086°32'0 0.5
2018-Feb-11 09:00N 30°25' W 086°32'0 0.2
2018-Feb-11 08:28N 30°25' W 086°32'0 0.4
2018-Feb-11 07:58N 30°25' W 086°32'0 0.2
2018-Feb-11 07:23N 30°25' W 086°32'0 0.3
2018-Feb-11 07:00N 30°25' W 086°32'0 0.3
2018-Feb-11 06:29N 30°25' W 086°32'0 0.5
2018-Feb-11 06:00N 30°25' W 086°32'0 0.2
2018-Feb-11 05:29N 30°25' W 086°32'3 5.2
2018-Feb-11 05:00N 30°26' W 086°29'3 6.1
2018-Feb-11 04:30N 30°26' W 086°26'3 6.0
2018-Feb-11 04:00N 30°26' W 086°22'3 0.2
2018-Feb-10 11:40N 30°26' W 086°19'1 5.1
2018-Feb-10 11:30N 30°26' W 086°20'3 5.1
2018-Feb-10 11:00N 30°26' W 086°23'2 4.9
2018-Feb-10 10:30N 30°26' W 086°25'2 4.6
2018-Feb-10 10:01N 30°26' W 086°28'3 5.5
2018-Feb-10 09:29N 30°25' W 086°31'11 4.6
2018-Feb-10 07:03N 30°24' W 086°44'0 5.6
2018-Feb-10 07:00N 30°24' W 086°45'3 5.4
2018-Feb-10 06:30N 30°24' W 086°48'3 5.5
2018-Feb-10 06:01N 30°24' W 086°51'  
2018-Feb-04 22:25N 30°24' W 086°53'3 6.9
2018-Feb-04 22:00N 30°24' W 086°50'3 6.8
2018-Feb-04 21:30N 30°24' W 086°46'13 6.4
2018-Feb-04 19:32N 30°25' W 086°31'1 7.2
2018-Feb-04 19:21N 30°26' W 086°30'3 7.3
2018-Feb-04 19:00N 30°26' W 086°27'4 7.4
2018-Feb-04 18:30N 30°26' W 086°23'3 0.1
2018-Feb-03 15:14N 30°26' W 086°19'1 4.6
2018-Feb-03 14:59N 30°26' W 086°20'2 5.1
2018-Feb-03 14:30N 30°26' W 086°23'2 4.8
2018-Feb-03 14:00N 30°26' W 086°26'2 3.7
2018-Feb-03 13:30N 30°26' W 086°28'4 4.6
2018-Feb-03 12:40N 30°25' W 086°32'10 4.7
2018-Feb-03 10:30N 30°24' W 086°44'2 4.8
2018-Feb-03 10:01N 30°24' W 086°47'3 5.0
2018-Feb-03 09:30N 30°24' W 086°50'3 5.1
2018-Feb-03 09:00N 30°24' W 086°53'  

Dump ship's entire track history